Time;durP1;ratioP1;P1;durP2;ratioP2;P2;SDS_P1;SDS_P2;PMS_P1;PMS_P2;Temp;Humidity;BMP_temperature;BMP_pressure;BME280_temperature;BME280_humidity;BME280_pressure;Samples;Min_cycle;Max_cycle;Signal;HPM_P1;HPM_P2
2023/06/18 00:00:41;;;;;;;15.73;13.95;;;19.10;99.50;;;;;;5054784;28;20430;-52
2023/06/18 00:03:08;;;;;;;19.70;14.65;;;19.10;99.40;;;;;;5054861;28;20056;-49
2023/06/18 00:05:35;;;;;;;18.63;15.13;;;19.10;99.50;;;;;;5054797;28;20037;-50
2023/06/18 00:08:02;;;;;;;16.45;14.15;;;19.10;99.30;;;;;;5055130;28;20136;-50
2023/06/18 00:10:28;;;;;;;18.45;14.25;;;19.10;99.40;;;;;;5054524;28;20041;-49
2023/06/18 00:12:55;;;;;;;15.40;13.38;;;19.10;99.50;;;;;;5054420;28;20041;-51
2023/06/18 00:15:22;;;;;;;19.17;13.65;;;19.10;99.60;;;;;;5054604;28;20095;-51
2023/06/18 00:17:49;;;;;;;28.20;16.33;;;19.10;99.90;;;;;;5054563;28;20075;-48
2023/06/18 00:20:15;;;;;;;23.73;15.70;;;19.10;99.90;;;;;;5053998;28;20121;-48
2023/06/18 00:22:44;;;;;;;19.40;16.95;;;19.10;99.90;;;;;;5054291;28;20162;-50
2023/06/18 00:25:10;;;;;;;21.98;17.10;;;19.00;99.90;;;;;;5054529;28;20071;-49
2023/06/18 00:27:37;;;;;;;25.58;17.55;;;18.90;99.90;;;;;;5054480;28;20036;-47
2023/06/18 00:30:04;;;;;;;21.73;17.05;;;18.80;99.90;;;;;;5053511;28;20399;-50
2023/06/18 00:32:31;;;;;;;21.77;18.10;;;18.70;99.90;;;;;;5053128;28;20055;-50
2023/06/18 00:35:00;;;;;;;25.90;19.33;;;18.70;99.90;;;;;;5052947;28;20040;-49
2023/06/18 00:37:27;;;;;;;23.38;20.05;;;18.70;99.90;;;;;;5054117;28;20045;-50
2023/06/18 00:39:55;;;;;;;23.45;21.08;;;18.70;99.90;;;;;;5054013;28;20036;-52
2023/06/18 00:42:21;;;;;;;26.65;21.17;;;18.70;99.90;;;;;;5052664;28;20087;-52
2023/06/18 00:44:48;;;;;;;26.75;21.60;;;18.60;99.90;;;;;;5052236;28;20515;-48
2023/06/18 00:47:17;;;;;;;27.63;22.08;;;18.60;99.90;;;;;;5052826;28;20045;-49
2023/06/18 00:49:44;;;;;;;25.00;22.00;;;18.60;99.90;;;;;;5052866;28;20041;-48
2023/06/18 00:52:14;;;;;;;29.95;22.98;;;18.60;99.90;;;;;;5053453;28;20051;-48
2023/06/18 00:54:41;;;;;;;27.55;23.55;;;18.70;99.90;;;;;;5052401;28;20609;-49
2023/06/18 00:57:08;;;;;;;26.25;22.75;;;18.70;99.90;;;;;;5054037;28;20072;-50
2023/06/18 00:59:37;;;;;;;27.02;24.13;;;18.70;99.90;;;;;;5051894;28;20710;-50
2023/06/18 01:02:04;;;;;;;27.58;23.33;;;18.70;99.90;;;;;;5053893;28;20047;-49
2023/06/18 01:04:35;;;;;;;27.45;24.25;;;18.70;99.90;;;;;;5053641;28;20037;-48
2023/06/18 01:07:03;;;;;;;27.70;24.85;;;18.70;99.90;;;;;;5052185;28;20055;-52
2023/06/18 01:09:30;;;;;;;29.75;25.35;;;18.60;99.90;;;;;;5053863;28;20041;-50
2023/06/18 01:12:00;;;;;;;27.98;25.05;;;18.60;99.90;;;;;;5052276;28;20045;-50
2023/06/18 01:14:28;;;;;;;29.50;26.38;;;18.60;99.90;;;;;;5047292;28;20452;-56
2023/06/18 01:16:55;;;;;;;31.35;26.50;;;18.50;99.90;;;;;;5046932;28;20055;-52
2023/06/18 01:19:23;;;;;;;28.98;25.88;;;18.50;99.90;;;;;;5047206;28;20091;-50
2023/06/18 01:21:49;;;;;;;29.52;26.42;;;18.40;99.90;;;;;;5059117;28;20049;-49
2023/06/18 01:24:18;;;;;;;30.33;26.80;;;18.40;99.90;;;;;;5046674;28;20041;-44
2023/06/18 01:26:45;;;;;;;29.50;26.42;;;18.40;99.90;;;;;;5052160;28;20041;-47
2023/06/18 01:29:12;;;;;;;28.05;24.77;;;18.50;99.90;;;;;;5053064;28;20124;-49
2023/06/18 01:31:42;;;;;;;27.88;24.98;;;18.60;99.90;;;;;;5046510;28;20055;-50
2023/06/18 01:34:09;;;;;;;31.35;25.63;;;18.60;99.90;;;;;;5053352;28;20048;-51
2023/06/18 01:36:37;;;;;;;29.20;26.00;;;18.50;99.90;;;;;;5053010;28;20044;-48
2023/06/18 01:39:04;;;;;;;28.13;25.23;;;18.50;99.90;;;;;;5052510;28;20041;-54
2023/06/18 01:41:31;;;;;;;31.58;26.58;;;18.50;99.90;;;;;;5052274;28;20041;-50
2023/06/18 01:43:58;;;;;;;29.20;26.35;;;18.40;99.90;;;;;;5051774;28;20095;-48
2023/06/18 01:46:25;;;;;;;27.98;25.02;;;18.50;99.90;;;;;;5053080;28;20041;-51
2023/06/18 01:48:52;;;;;;;29.33;26.13;;;18.50;99.90;;;;;;5051936;28;20399;-50
2023/06/18 01:51:19;;;;;;;30.92;27.42;;;18.50;99.90;;;;;;5046025;28;20507;-52
2023/06/18 01:53:46;;;;;;;28.60;25.52;;;18.60;99.90;;;;;;5046855;28;20052;-52
2023/06/18 01:56:13;;;;;;;29.20;26.17;;;18.50;99.90;;;;;;5032270;28;20045;-51
2023/06/18 01:58:40;;;;;;;30.45;27.40;;;18.60;99.90;;;;;;5046279;28;20472;-50
2023/06/18 02:01:09;;;;;;;30.15;26.88;;;18.50;99.90;;;;;;5044962;28;20464;-54
2023/06/18 02:03:36;;;;;;;31.52;27.60;;;18.50;99.90;;;;;;5051599;28;20041;-49
2023/06/18 02:06:03;;;;;;;32.05;28.73;;;18.50;99.90;;;;;;5046842;28;20044;-50
2023/06/18 02:08:30;;;;;;;33.97;30.50;;;18.50;99.90;;;;;;5046446;28;20472;-53
2023/06/18 02:10:57;;;;;;;33.45;30.23;;;18.50;99.90;;;;;;5046691;28;20127;-52
2023/06/18 02:13:24;;;;;;;32.85;29.60;;;18.50;99.90;;;;;;5046199;28;20045;-51
2023/06/18 02:15:51;;;;;;;33.80;30.20;;;18.40;99.90;;;;;;5051447;28;20041;-52
2023/06/18 02:18:18;;;;;;;36.10;32.50;;;18.40;99.90;;;;;;5052643;28;20052;-46
2023/06/18 02:20:46;;;;;;;34.10;30.40;;;18.30;99.90;;;;;;5052667;28;20120;-48
2023/06/18 02:23:13;;;;;;;34.40;30.95;;;18.30;99.90;;;;;;5052846;28;20052;-49
2023/06/18 02:25:40;;;;;;;35.30;31.77;;;18.30;99.90;;;;;;5052808;28;20364;-48
2023/06/18 02:28:07;;;;;;;35.45;31.75;;;18.30;99.90;;;;;;5051435;28;20499;-53
2023/06/18 02:30:33;;;;;;;35.13;31.45;;;18.30;99.90;;;;;;5051672;28;20037;-49
2023/06/18 02:33:02;;;;;;;36.00;32.53;;;18.30;99.90;;;;;;5052346;28;20503;-51
2023/06/18 02:35:29;;;;;;;35.38;31.65;;;18.30;99.90;;;;;;5051746;28;20047;-50
2023/06/18 02:37:56;;;;;;;35.40;31.23;;;18.30;99.90;;;;;;5052356;28;20041;-47
2023/06/18 02:40:24;;;;;;;34.30;30.73;;;18.30;99.90;;;;;;5051234;28;20499;-49
2023/06/18 02:42:52;;;;;;;34.47;30.88;;;18.20;99.90;;;;;;5051774;28;20044;-48
2023/06/18 02:45:19;;;;;;;36.30;32.38;;;18.10;99.90;;;;;;5052222;28;20032;-49
2023/06/18 02:47:45;;;;;;;35.00;31.42;;;18.00;99.90;;;;;;5050478;28;20048;-51
2023/06/18 02:50:13;;;;;;;34.97;31.45;;;17.90;99.90;;;;;;5050974;28;20071;-53
2023/06/18 02:52:40;;;;;;;36.00;32.08;;;17.90;99.90;;;;;;5052076;28;20047;-46
2023/06/18 02:55:07;;;;;;;37.50;33.80;;;18.00;99.90;;;;;;5054390;28;20040;-47
2023/06/18 02:57:34;;;;;;;36.33;32.63;;;17.90;99.90;;;;;;5055773;28;20124;-48
2023/06/18 03:00:01;;;;;;;37.38;33.72;;;17.90;99.90;;;;;;5054097;28;20080;-48
2023/06/18 03:02:28;;;;;;;38.58;34.80;;;17.80;99.90;;;;;;5054573;28;20045;-47
2023/06/18 03:04:55;;;;;;;35.50;31.92;;;17.80;99.90;;;;;;5035408;28;20038;-46
2023/06/18 03:07:23;;;;;;;35.88;32.33;;;17.80;99.90;;;;;;5034902;28;20056;-49
2023/06/18 03:09:49;;;;;;;36.50;32.78;;;17.80;99.90;;;;;;5051721;28;20045;-52
2023/06/18 03:12:16;;;;;;;35.92;32.05;;;18.00;99.90;;;;;;5034784;28;20046;-52
2023/06/18 03:14:43;;;;;;;37.33;33.05;;;18.00;99.90;;;;;;5034828;28;20064;-50
2023/06/18 03:17:11;;;;;;;35.63;32.13;;;18.00;99.90;;;;;;5051419;28;20224;-50
2023/06/18 03:19:38;;;;;;;37.25;33.28;;;18.10;99.90;;;;;;5034819;28;20073;-50
2023/06/18 03:22:05;;;;;;;38.63;34.50;;;18.20;99.90;;;;;;5054831;28;20049;-49
2023/06/18 03:24:34;;;;;;;39.80;35.58;;;18.20;99.90;;;;;;5054316;28;20037;-48
2023/06/18 03:27:01;;;;;;;39.53;35.42;;;18.10;99.90;;;;;;5054007;28;20063;-51
2023/06/18 03:29:28;;;;;;;36.25;32.60;;;18.10;99.90;;;;;;5054074;28;20064;-49
2023/06/18 03:31:56;;;;;;;35.90;32.28;;;18.00;99.90;;;;;;5070103;28;20037;-49
2023/06/18 03:34:23;;;;;;;32.35;28.60;;;18.00;99.90;;;;;;5053856;28;20083;-47
2023/06/18 03:36:50;;;;;;;31.83;28.42;;;18.00;99.90;;;;;;5055430;28;20052;-54
2023/06/18 03:39:20;;;;;;;30.27;26.98;;;18.00;99.90;;;;;;5054007;28;20530;-48
2023/06/18 03:41:47;;;;;;;27.13;24.10;;;18.00;99.90;;;;;;5054008;28;20044;-53
2023/06/18 03:44:14;;;;;;;21.15;19.05;;;18.10;99.90;;;;;;5054013;28;20430;-51
2023/06/18 03:46:41;;;;;;;17.20;15.48;;;18.10;99.90;;;;;;5055189;28;20487;-49
2023/06/18 03:49:08;;;;;;;16.67;15.18;;;18.10;99.90;;;;;;5053294;28;20115;-49
2023/06/18 03:51:36;;;;;;;16.58;14.85;;;18.20;99.90;;;;;;5070203;28;20059;-48
2023/06/18 03:54:03;;;;;;;17.83;14.40;;;18.20;99.90;;;;;;5053129;28;20052;-49
2023/06/18 03:56:31;;;;;;;16.70;14.77;;;18.20;99.90;;;;;;5037464;28;20583;-49
2023/06/18 03:58:59;;;;;;;16.60;14.75;;;18.20;99.90;;;;;;5053374;28;20147;-51
2023/06/18 04:01:28;;;;;;;18.45;16.38;;;18.20;99.90;;;;;;5053597;28;20163;-53
2023/06/18 04:03:56;;;;;;;22.55;20.05;;;18.20;99.90;;;;;;5047030;28;20041;-51
2023/06/18 04:06:23;;;;;;;26.45;23.50;;;18.10;99.90;;;;;;5052551;28;20414;-49
2023/06/18 04:08:50;;;;;;;27.58;24.75;;;18.00;99.90;;;;;;5053702;28;20033;-48
2023/06/18 04:11:16;;;;;;;25.00;22.58;;;18.00;99.90;;;;;;5054830;28;20041;-48
2023/06/18 04:13:44;;;;;;;25.70;23.10;;;18.00;99.90;;;;;;5053479;28;20087;-48
2023/06/18 04:16:13;;;;;;;24.60;22.10;;;18.00;99.90;;;;;;5053753;28;20492;-51
2023/06/18 04:18:40;;;;;;;25.27;22.48;;;18.00;99.90;;;;;;5048452;28;20492;-50
2023/06/18 04:21:07;;;;;;;25.02;22.40;;;18.10;99.90;;;;;;5047046;28;20053;-51
2023/06/18 04:23:35;;;;;;;24.58;22.00;;;18.10;99.90;;;;;;5053072;28;20208;-52
2023/06/18 04:26:02;;;;;;;24.70;22.13;;;18.10;99.90;;;;;;5061702;28;20488;-49
2023/06/18 04:28:29;;;;;;;24.70;20.80;;;18.10;99.90;;;;;;5054636;28;20047;-48
2023/06/18 04:30:56;;;;;;;23.17;20.73;;;18.10;99.90;;;;;;5053124;28;20427;-47
2023/06/18 04:33:24;;;;;;;24.13;20.65;;;18.20;99.90;;;;;;5053077;28;20052;-55
2023/06/18 04:35:52;;;;;;;21.00;18.80;;;18.20;99.90;;;;;;5048008;28;20041;-52
2023/06/18 04:38:21;;;;;;;20.40;18.30;;;18.20;99.90;;;;;;5046765;28;20051;-48
2023/06/18 04:40:48;;;;;;;20.13;18.15;;;18.20;99.90;;;;;;5046878;28;20049;-48
2023/06/18 04:43:17;;;;;;;20.08;18.08;;;18.20;99.90;;;;;;5052700;28;20488;-52
2023/06/18 04:45:45;;;;;;;19.67;17.67;;;18.20;99.90;;;;;;5046810;28;20041;-50
2023/06/18 04:48:12;;;;;;;20.15;18.05;;;18.20;99.90;;;;;;5052855;28;20067;-46
2023/06/18 04:50:39;;;;;;;20.40;18.45;;;18.30;99.90;;;;;;5052870;28;20040;-50
2023/06/18 04:53:06;;;;;;;20.52;18.45;;;18.30;99.90;;;;;;5052512;28;20039;-50
2023/06/18 04:55:34;;;;;;;20.25;18.25;;;18.30;99.90;;;;;;5052645;28;20056;-45
2023/06/18 04:58:01;;;;;;;23.02;18.23;;;18.40;99.90;;;;;;5052579;28;20051;-49
2023/06/18 05:00:29;;;;;;;19.95;17.50;;;18.40;99.90;;;;;;5052339;28;20045;-48
2023/06/18 05:02:57;;;;;;;21.60;18.10;;;18.50;99.90;;;;;;5052265;28;20051;-49
2023/06/18 05:05:24;;;;;;;19.80;17.80;;;18.50;99.90;;;;;;5053648;28;20040;-51
2023/06/18 05:07:51;;;;;;;17.73;15.65;;;18.50;99.90;;;;;;5052436;28;20068;-47
2023/06/18 05:10:19;;;;;;;16.88;15.10;;;18.60;99.90;;;;;;5052391;28;20045;-47
2023/06/18 05:12:47;;;;;;;16.20;14.60;;;18.60;99.90;;;;;;5052159;28;20041;-51
2023/06/18 05:15:14;;;;;;;17.10;15.32;;;18.60;99.90;;;;;;5052622;28;20049;-48
2023/06/18 05:17:41;;;;;;;15.93;14.43;;;18.60;99.90;;;;;;5052096;28;20442;-50
2023/06/18 05:20:12;;;;;;;15.23;13.65;;;18.70;99.90;;;;;;5051622;28;20045;-48
2023/06/18 05:22:42;;;;;;;16.25;14.40;;;18.70;99.90;;;;;;5052262;28;20041;-50
2023/06/18 05:25:11;;;;;;;16.77;14.88;;;18.80;99.90;;;;;;5052254;28;20156;-51
2023/06/18 05:27:37;;;;;;;16.27;14.65;;;18.80;99.90;;;;;;5053463;28;20488;-52
2023/06/18 05:30:04;;;;;;;19.13;15.52;;;18.90;99.90;;;;;;5051999;28;20125;-49
2023/06/18 05:32:33;;;;;;;15.68;14.13;;;19.00;99.90;;;;;;5051882;28;20304;-54
2023/06/18 05:35:03;;;;;;;17.83;15.93;;;19.00;99.90;;;;;;5052015;28;20053;-51
2023/06/18 05:37:35;;;;;;;17.23;15.52;;;19.00;99.90;;;;;;5052202;28;20045;-50
2023/06/18 05:40:02;;;;;;;16.98;15.30;;;19.10;99.90;;;;;;5053321;28;20049;-50
2023/06/18 05:42:36;;;;;;;16.40;14.80;;;19.10;99.90;;;;;;5051935;28;20045;-51
2023/06/18 05:45:02;;;;;;;18.60;15.27;;;19.20;99.90;;;;;;5051889;28;20075;-54
2023/06/18 05:47:29;;;;;;;18.15;15.90;;;19.20;99.90;;;;;;5051458;28;20403;-50
2023/06/18 05:49:57;;;;;;;16.55;14.98;;;19.20;99.90;;;;;;5053258;28;20086;-51
2023/06/18 05:52:25;;;;;;;15.70;13.85;;;19.30;99.90;;;;;;5051720;28;20045;-48
2023/06/18 05:54:52;;;;;;;16.58;14.85;;;19.30;99.90;;;;;;5051765;28;20167;-49
2023/06/18 05:57:20;;;;;;;17.05;15.35;;;19.30;99.90;;;;;;5051723;28;20051;-50
2023/06/18 05:59:48;;;;;;;16.60;15.05;;;19.40;99.90;;;;;;5050806;28;20051;-47
2023/06/18 06:02:16;;;;;;;16.88;15.07;;;19.50;99.90;;;;;;5051566;28;20348;-52
2023/06/18 06:04:42;;;;;;;17.02;15.23;;;19.50;99.90;;;;;;5051798;28;20033;-46
2023/06/18 06:07:12;;;;;;;16.92;15.13;;;19.50;99.90;;;;;;5051696;28;20073;-49
2023/06/18 06:09:40;;;;;;;16.73;15.13;;;19.60;99.90;;;;;;5051723;28;20056;-48
2023/06/18 06:12:08;;;;;;;16.42;14.88;;;19.50;99.90;;;;;;5051510;28;20139;-49
2023/06/18 06:14:34;;;;;;;16.33;14.70;;;19.60;99.90;;;;;;5051668;28;20053;-52
2023/06/18 06:17:02;;;;;;;17.42;15.70;;;19.60;99.90;;;;;;5052201;28;20055;-47
2023/06/18 06:19:29;;;;;;;17.10;15.40;;;19.60;99.90;;;;;;5051739;28;20567;-48
2023/06/18 06:21:55;;;;;;;17.52;15.60;;;19.60;99.90;;;;;;5051623;28;20488;-48
2023/06/18 06:24:22;;;;;;;17.50;15.80;;;19.60;99.90;;;;;;5051844;28;20037;-47
2023/06/18 06:26:49;;;;;;;18.38;16.52;;;19.60;99.90;;;;;;5052965;28;20041;-47
2023/06/18 06:29:16;;;;;;;17.73;16.13;;;19.70;99.90;;;;;;5054027;28;20037;-53
2023/06/18 06:31:43;;;;;;;17.38;15.55;;;19.60;99.90;;;;;;5055787;28;20064;-49
2023/06/18 06:34:12;;;;;;;17.92;16.17;;;19.60;99.90;;;;;;5055254;28;20403;-46
2023/06/18 06:36:38;;;;;;;18.13;16.13;;;19.60;99.90;;;;;;5055120;28;20041;-52
2023/06/18 06:39:07;;;;;;;18.45;15.98;;;19.60;99.90;;;;;;5055288;28;20037;-55
2023/06/18 06:41:34;;;;;;;18.30;16.60;;;19.70;99.90;;;;;;5055248;28;20183;-52
2023/06/18 06:44:02;;;;;;;18.67;16.15;;;19.70;99.90;;;;;;5055090;28;20044;-46
2023/06/18 06:46:53;;;;;;;17.35;15.60;;;19.70;99.90;;;;;;5050750;28;20049;-50
2023/06/18 06:49:34;;;;;;;18.10;16.60;;;19.90;99.90;;;;;;5037327;28;20049;-50
2023/06/18 06:52:08;;;;;;;19.17;17.13;;;20.00;99.90;;;;;;5054990;28;20104;-48
2023/06/18 06:54:35;;;;;;;17.73;15.80;;;20.10;99.90;;;;;;5056379;28;20051;-52
2023/06/18 06:57:02;;;;;;;16.70;14.68;;;20.20;99.90;;;;;;5054945;28;20037;-51
2023/06/18 06:59:30;;;;;;;15.32;13.95;;;20.30;99.90;;;;;;5054036;28;20443;-54
2023/06/18 07:01:59;;;;;;;17.40;15.88;;;20.30;99.90;;;;;;5054477;28;20447;-50
2023/06/18 07:04:26;;;;;;;16.25;14.75;;;20.40;99.90;;;;;;5054889;28;20053;-49
2023/06/18 07:06:56;;;;;;;17.13;15.43;;;20.40;99.90;;;;;;5056220;28;20069;-49
2023/06/18 07:09:23;;;;;;;16.98;15.10;;;20.50;99.90;;;;;;5055896;28;20044;-50
2023/06/18 07:11:50;;;;;;;15.43;13.93;;;20.60;99.90;;;;;;5056097;28;20040;-50
2023/06/18 07:14:16;;;;;;;14.50;13.10;;;20.60;99.90;;;;;;5055883;28;20098;-52
2023/06/18 07:16:43;;;;;;;15.48;13.88;;;20.70;99.90;;;;;;5055848;28;20077;-52
2023/06/18 07:19:10;;;;;;;14.38;12.88;;;20.80;99.90;;;;;;5055688;28;20041;-49
2023/06/18 07:21:37;;;;;;;13.35;12.15;;;20.80;99.90;;;;;;5055826;28;20041;-52
2023/06/18 07:24:04;;;;;;;13.60;11.52;;;21.00;99.90;;;;;;5055427;28;20048;-48
2023/06/18 07:26:31;;;;;;;13.43;12.13;;;21.10;99.90;;;;;;5055558;28;20045;-46
2023/06/18 07:28:58;;;;;;;12.38;11.25;;;21.30;99.90;;;;;;5055416;28;20072;-47
2023/06/18 07:31:24;;;;;;;10.95;8.90;;;21.50;99.90;;;;;;5054239;28;20135;-47
2023/06/18 07:33:51;;;;;;;13.30;9.63;;;21.70;99.90;;;;;;5055550;28;20041;-46
2023/06/18 07:36:18;;;;;;;9.38;8.02;;;22.00;99.90;;;;;;5053406;28;20071;-47
2023/06/18 07:38:45;;;;;;;9.80;8.48;;;22.10;99.90;;;;;;5059352;28;20056;-52
2023/06/18 07:41:12;;;;;;;12.45;8.45;;;22.20;99.90;;;;;;5055047;28;20040;-50
2023/06/18 07:43:40;;;;;;;9.63;8.15;;;22.40;99.90;;;;;;5054898;28;20457;-51
2023/06/18 07:46:07;;;;;;;10.27;8.77;;;22.50;99.90;;;;;;5055327;28;20041;-51
2023/06/18 07:48:34;;;;;;;9.63;8.20;;;22.60;99.90;;;;;;5055408;28;20383;-48
2023/06/18 07:51:01;;;;;;;9.40;8.05;;;22.70;99.90;;;;;;5052789;28;20076;-54
2023/06/18 07:53:28;;;;;;;11.63;8.65;;;22.80;99.90;;;;;;5049344;28;20071;-46
2023/06/18 07:55:55;;;;;;;9.18;8.23;;;22.80;99.90;;;;;;5054888;28;20069;-49
2023/06/18 07:58:22;;;;;;;12.20;8.55;;;22.90;99.90;;;;;;5054317;28;20065;-53
2023/06/18 08:00:48;;;;;;;10.98;8.95;;;22.90;99.90;;;;;;5054670;28;20128;-46
2023/06/18 08:03:15;;;;;;;11.35;8.80;;;22.90;99.90;;;;;;5054527;28;20040;-49
2023/06/18 08:05:42;;;;;;;10.13;9.10;;;22.90;99.90;;;;;;5053456;28;20045;-47
2023/06/18 08:08:09;;;;;;;13.98;9.98;;;23.00;99.90;;;;;;5054859;28;20044;-53
2023/06/18 08:10:35;;;;;;;10.85;8.95;;;22.90;99.90;;;;;;5054820;28;20041;-49
2023/06/18 08:13:02;;;;;;;12.18;9.27;;;22.90;99.90;;;;;;5054464;28;20045;-51
2023/06/18 08:15:29;;;;;;;13.68;9.73;;;22.90;99.90;;;;;;5054490;28;20047;-48
2023/06/18 08:17:56;;;;;;;10.85;8.95;;;22.90;99.90;;;;;;5054536;28;20049;-52
2023/06/18 08:20:23;;;;;;;12.07;9.77;;;22.90;99.90;;;;;;5054267;28;20467;-52
2023/06/18 08:22:50;;;;;;;12.18;10.10;;;22.90;99.90;;;;;;5053949;28;20037;-52
2023/06/18 08:25:17;;;;;;;13.10;9.18;;;22.90;99.90;;;;;;5053994;28;20438;-49
2023/06/18 08:27:44;;;;;;;11.70;10.32;;;22.90;99.90;;;;;;5053748;28;20087;-47
2023/06/18 08:30:11;;;;;;;11.65;9.65;;;22.90;99.90;;;;;;5053799;28;20399;-52
2023/06/18 08:32:40;;;;;;;12.63;9.30;;;22.90;99.90;;;;;;5052124;28;20037;-52
2023/06/18 08:35:07;;;;;;;12.18;8.88;;;23.00;99.90;;;;;;5035652;28;20041;-51
2023/06/18 08:37:34;;;;;;;10.23;8.65;;;23.10;99.90;;;;;;5054327;28;20048;-51
2023/06/18 08:40:00;;;;;;;10.35;9.10;;;23.10;99.90;;;;;;5053808;28;20110;-50
2023/06/18 08:42:27;;;;;;;11.85;9.80;;;23.10;99.90;;;;;;5054014;28;20131;-53
2023/06/18 08:44:54;;;;;;;11.85;9.05;;;23.20;99.90;;;;;;5052495;28;20076;-49
2023/06/18 08:47:21;;;;;;;11.25;8.63;;;23.20;99.90;;;;;;5053975;28;20044;-51
2023/06/18 08:49:48;;;;;;;10.57;8.80;;;23.30;99.90;;;;;;5053662;28;20072;-50
2023/06/18 08:52:15;;;;;;;14.38;9.30;;;23.40;99.90;;;;;;5052532;28;20044;-52
2023/06/18 08:54:42;;;;;;;10.60;9.40;;;23.50;99.90;;;;;;5053368;28;20499;-49
2023/06/18 08:57:09;;;;;;;9.52;8.63;;;23.60;99.90;;;;;;5053791;28;20052;-52
2023/06/18 08:59:37;;;;;;;10.23;9.00;;;23.70;99.90;;;;;;5052110;28;20048;-54
2023/06/18 09:02:03;;;;;;;13.52;9.02;;;23.70;99.90;;;;;;5053648;28;20040;-49
2023/06/18 09:04:30;;;;;;;11.48;9.27;;;23.80;99.90;;;;;;5053569;28;20137;-51
2023/06/18 09:06:57;;;;;;;10.77;9.27;;;23.80;99.90;;;;;;5050651;28;20041;-53
2023/06/18 09:09:24;;;;;;;11.35;8.55;;;23.90;99.90;;;;;;5052177;28;20049;-54
2023/06/18 09:11:51;;;;;;;13.20;9.05;;;24.00;99.90;;;;;;5053319;28;20037;-50
2023/06/18 09:14:19;;;;;;;11.88;9.30;;;24.20;99.90;;;;;;5052199;28;20048;-50
2023/06/18 09:16:46;;;;;;;14.10;9.60;;;24.30;99.90;;;;;;5053559;28;20048;-53
2023/06/18 09:19:13;;;;;;;10.82;9.82;;;24.30;99.90;;;;;;5053484;28;20090;-50
2023/06/18 09:21:40;;;;;;;10.65;9.45;;;24.40;99.90;;;;;;5052919;28;20040;-48
2023/06/18 09:24:07;;;;;;;11.95;9.35;;;24.40;99.90;;;;;;5052460;28;20041;-47
2023/06/18 09:26:34;;;;;;;11.35;8.88;;;24.40;99.90;;;;;;5053107;28;20123;-49
2023/06/18 09:29:01;;;;;;;10.70;9.60;;;24.50;99.90;;;;;;5053293;28;20045;-51
2023/06/18 09:31:28;;;;;;;12.20;9.57;;;24.60;99.90;;;;;;5050171;28;20044;-51
2023/06/18 09:33:55;;;;;;;9.90;8.90;;;24.60;99.90;;;;;;5053208;28;20051;-51
2023/06/18 09:36:21;;;;;;;10.45;8.98;;;24.60;99.90;;;;;;5068296;28;20557;-48
2023/06/18 09:38:48;;;;;;;13.02;8.88;;;24.60;99.90;;;;;;5053400;28;20099;-53
2023/06/18 09:41:15;;;;;;;11.65;9.25;;;24.60;99.90;;;;;;5052908;28;20045;-53
2023/06/18 09:43:43;;;;;;;10.48;9.00;;;24.70;99.90;;;;;;5068385;28;20452;-51
2023/06/18 09:46:10;;;;;;;13.60;9.60;;;24.70;99.90;;;;;;5052920;28;20392;-50
2023/06/18 09:48:38;;;;;;;10.15;8.90;;;24.80;99.90;;;;;;5051571;28;20041;-55
2023/06/18 09:51:05;;;;;;;9.60;8.50;;;24.80;99.90;;;;;;5052941;28;20041;-51
2023/06/18 09:53:34;;;;;;;11.05;8.75;;;24.90;99.90;;;;;;5051644;28;20072;-49
2023/06/18 09:56:01;;;;;;;12.50;8.30;;;24.90;99.90;;;;;;5053157;28;20045;-51
2023/06/18 09:58:28;;;;;;;8.57;7.55;;;25.00;99.90;;;;;;5052633;28;20049;-54
2023/06/18 10:00:55;;;;;;;9.65;7.18;;;25.10;99.90;;;;;;5052648;28;20049;-52
2023/06/18 10:03:21;;;;;;;7.80;6.90;;;25.10;99.90;;;;;;5053660;28;20044;-52
2023/06/18 10:05:48;;;;;;;10.95;7.57;;;25.20;99.80;;;;;;5055835;28;20061;-53
2023/06/18 10:08:15;;;;;;;8.73;6.03;;;25.30;99.50;;;;;;5057855;28;20045;-48
2023/06/18 10:10:42;;;;;;;7.05;6.13;;;25.30;99.20;;;;;;5057435;28;20037;-48
2023/06/18 10:13:10;;;;;;;7.35;6.22;;;25.40;98.60;;;;;;5057143;28;20044;-52
2023/06/18 10:15:37;;;;;;;7.60;6.00;;;25.50;98.40;;;;;;5057062;28;20041;-52
2023/06/18 10:18:04;;;;;;;7.22;6.20;;;25.50;97.80;;;;;;5057681;28;20076;-51
2023/06/18 10:20:31;;;;;;;7.03;5.88;;;25.50;97.70;;;;;;5057327;28;20076;-52
2023/06/18 10:22:58;;;;;;;10.38;6.47;;;25.50;97.60;;;;;;5057049;28;20049;-51
2023/06/18 10:25:25;;;;;;;9.48;6.70;;;25.50;97.80;;;;;;5056818;28;20041;-52
2023/06/18 10:27:52;;;;;;;9.07;6.32;;;25.50;98.10;;;;;;5057339;28;20087;-54
2023/06/18 10:30:19;;;;;;;7.85;6.13;;;25.60;98.10;;;;;;5055841;28;20048;-49
2023/06/18 10:32:46;;;;;;;8.35;5.85;;;25.60;97.60;;;;;;5056086;28;20041;-54
2023/06/18 10:35:13;;;;;;;8.18;6.45;;;25.70;97.60;;;;;;5055316;28;20045;-51
2023/06/18 10:37:40;;;;;;;10.32;6.63;;;25.70;97.80;;;;;;5055893;28;20045;-50
2023/06/18 10:40:07;;;;;;;8.73;6.45;;;25.80;97.80;;;;;;5056856;28;20103;-53
2023/06/18 10:42:34;;;;;;;7.45;6.45;;;25.80;97.70;;;;;;5056687;28;20051;-49
2023/06/18 10:45:02;;;;;;;9.00;7.00;;;25.80;97.30;;;;;;5057212;28;20040;-51
2023/06/18 10:47:29;;;;;;;7.32;6.40;;;25.80;97.50;;;;;;5057018;28;20082;-48
2023/06/18 10:49:56;;;;;;;10.13;6.50;;;25.80;97.80;;;;;;5055464;28;20033;-47
2023/06/18 10:52:23;;;;;;;11.15;6.88;;;25.80;98.00;;;;;;5053545;28;20510;-49
2023/06/18 10:54:52;;;;;;;10.73;7.28;;;25.90;97.70;;;;;;5054705;28;20087;-49
2023/06/18 10:57:18;;;;;;;7.80;6.38;;;26.00;97.20;;;;;;5054984;28;20041;-53
2023/06/18 10:59:45;;;;;;;7.25;6.63;;;26.10;97.40;;;;;;5054025;28;20049;-52
2023/06/18 11:02:12;;;;;;;8.18;6.65;;;26.30;97.10;;;;;;5053689;28;20107;-50
2023/06/18 11:04:39;;;;;;;8.70;6.60;;;26.40;97.50;;;;;;5054269;28;20045;-48
2023/06/18 11:07:06;;;;;;;7.85;6.20;;;26.50;96.90;;;;;;5055447;28;20039;-54
2023/06/18 11:09:32;;;;;;;8.00;6.40;;;26.60;96.70;;;;;;5054873;28;20037;-50
2023/06/18 11:11:59;;;;;;;10.00;6.78;;;26.70;96.60;;;;;;5055306;28;20071;-48
2023/06/18 11:14:26;;;;;;;6.90;6.20;;;26.80;96.70;;;;;;5055151;28;20041;-52
2023/06/18 11:16:53;;;;;;;8.05;5.68;;;27.00;95.90;;;;;;5055101;28;20541;-55
2023/06/18 11:19:19;;;;;;;6.90;5.75;;;27.00;95.50;;;;;;5055006;28;20514;-55
2023/06/18 11:21:46;;;;;;;8.65;6.15;;;27.10;95.60;;;;;;5055201;28;20094;-50
2023/06/18 11:24:13;;;;;;;7.30;6.13;;;27.20;95.70;;;;;;5054501;28;20126;-49
2023/06/18 11:26:40;;;;;;;8.80;5.70;;;27.30;95.60;;;;;;5054229;28;20048;-54
2023/06/18 11:29:07;;;;;;;8.35;5.93;;;27.40;95.00;;;;;;5054824;28;20041;-53
2023/06/18 11:31:33;;;;;;;8.13;5.90;;;27.40;94.50;;;;;;5053576;28;20069;-49
2023/06/18 11:34:00;;;;;;;6.80;6.10;;;27.40;94.90;;;;;;5053522;28;20453;-50
2023/06/18 11:36:27;;;;;;;7.07;5.50;;;27.60;94.80;;;;;;5054919;28;20116;-52
2023/06/18 11:38:54;;;;;;;9.23;5.90;;;27.80;94.40;;;;;;5054471;28;20049;-53
2023/06/18 11:41:24;;;;;;;7.55;5.05;;;27.90;93.90;;;;;;5054325;28;20053;-53
2023/06/18 11:43:51;;;;;;;6.93;5.50;;;28.00;93.50;;;;;;5070494;28;20049;-51
2023/06/18 11:46:18;;;;;;;7.97;5.57;;;28.00;93.40;;;;;;5053113;28;20495;-50
2023/06/18 11:48:45;;;;;;;7.07;5.40;;;28.00;93.60;;;;;;5070016;28;20120;-48
2023/06/18 11:51:11;;;;;;;7.35;5.20;;;28.00;93.10;;;;;;5054322;28;20197;-50
2023/06/18 11:53:38;;;;;;;6.13;5.53;;;27.90;93.00;;;;;;5054541;28;20143;-45
2023/06/18 11:56:05;;;;;;;6.15;4.82;;;27.80;93.20;;;;;;5054850;28;20112;-49
2023/06/18 11:58:32;;;;;;;6.70;5.30;;;27.80;93.50;;;;;;5012001;28;1222881;-47
2023/06/18 12:00:58;;;;;;;6.13;5.38;;;27.80;93.30;;;;;;5055852;28;20266;-51
2023/06/18 12:03:25;;;;;;;6.90;5.65;;;27.80;93.70;;;;;;5055100;28;20079;-50
2023/06/18 12:05:52;;;;;;;7.10;5.10;;;27.70;93.40;;;;;;5055417;28;20472;-54
2023/06/18 12:08:19;;;;;;;6.72;5.35;;;27.50;92.70;;;;;;5055604;28;20128;-48
2023/06/18 12:10:47;;;;;;;8.57;4.95;;;27.50;92.60;;;;;;5055543;28;20041;-48
2023/06/18 12:13:14;;;;;;;6.63;5.22;;;27.40;92.60;;;;;;5054864;28;20476;-53
2023/06/18 12:15:40;;;;;;;7.53;5.55;;;27.50;92.90;;;;;;5055304;28;20492;-51
2023/06/18 12:18:07;;;;;;;8.45;5.35;;;27.60;93.00;;;;;;5054820;28;20052;-47
2023/06/18 12:20:34;;;;;;;6.35;5.57;;;27.60;92.80;;;;;;5055227;28;20041;-52
2023/06/18 12:23:01;;;;;;;6.47;5.07;;;27.60;92.50;;;;;;5053941;28;20049;-49
2023/06/18 12:25:28;;;;;;;5.97;5.10;;;27.60;92.70;;;;;;5054353;28;20091;-49
2023/06/18 12:27:55;;;;;;;7.85;5.00;;;27.60;92.50;;;;;;5056866;28;20427;-48
2023/06/18 12:30:22;;;;;;;7.38;4.82;;;27.60;92.40;;;;;;5054491;28;20041;-51
2023/06/18 12:32:49;;;;;;;6.90;5.18;;;27.50;92.50;;;;;;5054546;28;20084;-50